Time;durP1;ratioP1;P1;durP2;ratioP2;P2;SDS_P1;SDS_P2;PMS_P1;PMS_P2;Temp;Humidity;BMP_temperature;BMP_pressure;BME280_temperature;BME280_humidity;BME280_pressure;Samples;Min_cycle;Max_cycle;Signal;HPM_P1;HPM_P2
2022/08/03 00:00:39;;;;;;;;;5.25;3.75;;;;;25.57;46.80;100961.84;5074730;28;45260;-51
2022/08/03 00:03:04;;;;;;;;;6.25;5.50;;;;;25.55;47.62;100971.81;5071419;27;45153;-49
2022/08/03 00:05:32;;;;;;;;;3.75;3.25;;;;;25.51;47.20;100978.44;5076445;27;45826;-51
2022/08/03 00:07:58;;;;;;;;;3.00;3.00;;;;;25.49;47.05;100975.91;5069005;27;45647;-50
2022/08/03 00:10:23;;;;;;;;;3.75;3.00;;;;;25.47;47.00;100972.50;5076379;27;45910;-51
2022/08/03 00:12:49;;;;;;;;;5.75;3.75;;;;;25.49;47.17;100978.56;5065179;28;46039;-49
2022/08/03 00:15:15;;;;;;;;;4.25;3.75;;;;;25.47;46.60;100971.66;5071421;28;46405;-48
2022/08/03 00:17:40;;;;;;;;;2.25;2.25;;;;;25.47;46.73;100985.06;5078295;27;45401;-48
2022/08/03 00:20:05;;;;;;;;;5.50;2.75;;;;;25.48;46.50;100984.06;5070754;27;48286;-48
2022/08/03 00:22:33;;;;;;;;;2.00;2.00;;;;;25.48;46.73;100984.06;5074108;28;45453;-51
2022/08/03 00:24:59;;;;;;;;;5.50;2.00;;;;;25.46;47.01;100984.22;5077454;27;45485;-49
2022/08/03 00:27:24;;;;;;;;;3.00;1.50;;;;;25.43;47.78;100984.47;5069969;27;70390;-47
2022/08/03 00:29:49;;;;;;;;;4.00;1.50;;;;;25.44;47.47;100980.81;5073665;28;45407;-49
2022/08/03 00:32:15;;;;;;;;;2.25;2.00;;;;;25.43;46.94;100986.28;5068685;28;60970;-50
2022/08/03 00:34:41;;;;;;;;;3.25;2.75;;;;;25.41;47.43;100980.22;5078376;27;47183;-50
2022/08/03 00:37:06;;;;;;;;;2.25;2.25;;;;;25.36;47.59;100977.94;5057645;28;45247;-49
2022/08/03 00:39:31;;;;;;;;;2.00;1.50;;;;;25.31;47.07;100977.50;5069915;27;45429;-48
2022/08/03 00:42:01;;;;;;;;;2.50;2.00;;;;;25.27;47.30;100976.91;5078222;27;45359;-49
2022/08/03 00:44:26;;;;;;;;;1.25;1.00;;;;;25.23;47.08;100975.41;5074982;28;46416;-50
2022/08/03 00:46:52;;;;;;;;;3.00;0.00;;;;;25.23;46.90;100975.41;5072547;28;55011;-50
2022/08/03 00:49:17;;;;;;;;;3.25;2.00;;;;;25.25;47.48;100969.97;5069761;27;52067;-50
2022/08/03 00:51:42;;;;;;;;;2.00;1.50;;;;;25.23;46.93;100975.41;5071535;27;45338;-49
2022/08/03 00:54:08;;;;;;;;;2.00;1.25;;;;;25.20;47.15;100973.03;5079351;27;53152;-51
2022/08/03 00:56:35;;;;;;;;;1.50;1.00;;;;;25.15;47.16;100965.38;5070557;28;45789;-47
2022/08/03 00:59:00;;;;;;;;;2.25;0.75;;;;;25.12;47.61;100962.09;5071328;27;45394;-46
2022/08/03 01:01:26;;;;;;;;;2.50;0.50;;;;;25.08;47.46;100963.34;5058553;28;69594;-45
2022/08/03 01:03:51;;;;;;;;;1.00;1.00;;;;;25.06;47.23;100962.63;5087753;27;45949;-47
2022/08/03 01:06:46;;;;;;;;;0.75;0.75;;;;;25.00;47.21;100964.84;5073151;27;72538;-51
2022/08/03 01:09:21;;;;;;;;;2.25;1.00;;;;;24.99;47.36;100963.13;5075348;28;45707;-51
2022/08/03 01:12:01;;;;;;;;;1.00;0.50;;;;;24.97;46.97;100956.22;5087804;27;45343;-50
2022/08/03 01:14:37;;;;;;;;;0.00;0.00;;;;;24.96;47.16;100952.69;5067618;28;47804;-48
2022/08/03 01:17:18;;;;;;;;;0.00;0.00;;;;;24.97;47.04;100951.72;5069597;27;45377;-48
2022/08/03 01:19:59;;;;;;;;;2.00;0.00;;;;;24.95;47.09;100945.66;5076082;27;45478;-51
2022/08/03 01:22:36;;;;;;;;;1.50;1.00;;;;;24.94;46.73;100951.13;5078846;27;45444;-51
2022/08/03 01:25:07;;;;;;;;;0.25;0.25;;;;;24.91;46.95;100944.19;5086702;27;46221;-51
2022/08/03 01:27:45;;;;;;;;;1.75;1.00;;;;;24.88;47.80;100936.44;5062191;28;45553;-49
2022/08/03 01:30:11;;;;;;;;;2.75;0.75;;;;;24.86;46.88;100938.41;5075308;27;45431;-49
2022/08/03 01:32:51;;;;;;;;;1.75;0.25;;;;;24.85;47.26;100942.03;5071518;28;45538;-49
2022/08/03 01:35:21;;;;;;;;;0.00;0.00;;;;;24.85;47.11;100936.69;5070085;27;46117;-51
2022/08/03 01:37:50;;;;;;;;;0.25;0.25;;;;;24.82;47.50;100935.13;5075480;27;45205;-52
2022/08/03 01:40:17;;;;;;;;;2.00;0.25;;;;;24.77;47.46;100937.34;5076622;27;45485;-49
2022/08/03 01:42:43;;;;;;;;;0.75;0.25;;;;;24.77;47.03;100931.13;5077925;27;45466;-52
2022/08/03 01:45:11;;;;;;;;;2.50;0.25;;;;;24.75;48.00;100927.72;5059951;28;48658;-51
2022/08/03 01:47:38;;;;;;;;;2.25;1.75;;;;;24.73;47.41;100927.84;5071771;27;45599;-50
2022/08/03 01:50:05;;;;;;;;;2.00;0.00;;;;;24.70;47.23;100925.47;5076479;27;45218;-50
2022/08/03 01:52:31;;;;;;;;;1.00;0.50;;;;;24.73;47.28;100925.16;5077454;27;45603;-50
2022/08/03 01:54:58;;;;;;;;;3.75;1.00;;;;;24.69;47.63;100920.22;5073908;27;75651;-51
2022/08/03 01:57:24;;;;;;;;;2.25;2.00;;;;;24.66;47.47;100928.50;5079143;27;45684;-52
2022/08/03 01:59:50;;;;;;;;;2.25;2.25;;;;;24.63;47.36;100925.13;5074788;27;53222;-50
2022/08/03 02:02:16;;;;;;;;;2.00;2.00;;;;;24.63;47.38;100925.13;5077015;27;64067;-50
2022/08/03 02:04:42;;;;;;;;;1.25;1.25;;;;;24.63;47.58;100922.44;5075650;27;45421;-52
2022/08/03 02:07:09;;;;;;;;;3.25;1.50;;;;;24.63;47.59;100930.47;5089434;27;45301;-48
2022/08/03 02:09:36;;;;;;;;;1.50;1.50;;;;;24.62;47.50;100922.56;5075136;27;45350;-51
2022/08/03 02:12:02;;;;;;;;;2.25;2.00;;;;;24.63;47.16;100926.94;5070911;27;45421;-51
2022/08/03 02:14:28;;;;;;;;;3.00;2.00;;;;;24.62;47.42;100912.69;5066100;28;46012;-51
2022/08/03 02:16:54;;;;;;;;;4.25;2.75;;;;;24.64;47.56;100918.75;5068177;28;45769;-51
2022/08/03 02:19:21;;;;;;;;;3.50;2.00;;;;;24.62;47.56;100912.69;5077427;28;45293;-50
2022/08/03 02:21:47;;;;;;;;;4.25;2.00;;;;;24.61;47.62;100910.16;5060549;27;68581;-48
2022/08/03 02:24:13;;;;;;;;;3.25;2.00;;;;;24.62;47.49;100912.69;5068888;28;52292;-48
2022/08/03 02:26:40;;;;;;;;;2.25;2.00;;;;;24.62;47.63;100911.84;5076727;28;71056;-51
2022/08/03 02:29:12;;;;;;;;;1.75;1.75;;;;;24.61;47.40;100907.47;5070748;27;45715;-52
2022/08/03 02:31:39;;;;;;;;;5.00;3.00;;;;;24.62;47.55;100903.81;5035630;27;1130475;-48
2022/08/03 02:34:08;;;;;;;;;2.25;2.00;;;;;24.63;47.57;100901.03;5059999;27;47294;-48
2022/08/03 02:36:37;;;;;;;;;3.00;2.00;;;;;24.65;47.82;100911.59;5072177;28;45747;-48
2022/08/03 02:39:04;;;;;;;;;3.00;2.00;;;;;24.63;47.64;100911.72;5080466;28;45233;-51
2022/08/03 02:41:37;;;;;;;;;2.50;2.50;;;;;24.62;47.66;100914.53;5090132;27;45303;-49
2022/08/03 02:44:07;;;;;;;;;3.00;3.00;;;;;24.59;47.51;100912.09;5066260;28;46446;-48
2022/08/03 02:46:36;;;;;;;;;5.50;4.00;;;;;24.55;47.77;100905.31;5083618;27;45444;-51
2022/08/03 02:49:02;;;;;;;;;4.75;4.25;;;;;24.51;47.82;100903.84;5073911;27;45219;-48
2022/08/03 02:51:30;;;;;;;;;6.75;4.00;;;;;24.48;48.17;100904.94;5074762;27;45576;-49
2022/08/03 02:53:57;;;;;;;;;5.00;4.00;;;;;24.45;47.85;100902.50;5088920;27;46464;-49
2022/08/03 02:56:24;;;;;;;;;3.00;3.00;;;;;24.43;48.13;100901.78;5069104;27;73048;-48
2022/08/03 02:58:50;;;;;;;;;3.25;2.25;;;;;24.40;47.97;100902.03;5087232;27;57553;-50
2022/08/03 03:01:18;;;;;;;;;2.75;2.75;;;;;24.39;47.86;100895.00;5055885;28;46240;-51
2022/08/03 03:03:44;;;;;;;;;3.25;3.25;;;;;24.37;48.12;100903.16;5085625;27;46302;-52
2022/08/03 03:06:09;;;;;;;;;3.25;3.25;;;;;24.33;48.61;100898.19;5065410;28;45733;-53
2022/08/03 03:08:35;;;;;;;;;4.50;2.00;;;;;24.28;48.64;100892.38;5074752;27;67505;-51
2022/08/03 03:11:01;;;;;;;;;4.25;3.50;;;;;24.27;48.16;100896.88;5075665;28;70063;-49
2022/08/03 03:13:30;;;;;;;;;5.75;2.50;;;;;24.25;48.43;100891.63;5062026;28;72562;-51
2022/08/03 03:16:00;;;;;;;;;8.00;3.25;;;;;24.25;48.12;100888.13;5062226;28;45294;-48
2022/08/03 03:18:27;;;;;;;;;4.00;4.00;;;;;24.28;48.32;100893.22;5076926;27;45371;-46
2022/08/03 03:20:53;;;;;;;;;4.75;3.75;;;;;24.30;48.05;100883.25;5072417;28;45390;-47
2022/08/03 03:23:20;;;;;;;;;3.25;3.00;;;;;24.33;48.02;100887.47;5073646;27;66139;-47
2022/08/03 03:25:46;;;;;;;;;3.25;2.00;;;;;24.34;48.02;100891.88;5075589;27;45274;-46
2022/08/03 03:28:11;;;;;;;;;6.75;3.50;;;;;24.34;48.16;100890.03;5075728;27;64784;-48
2022/08/03 03:30:37;;;;;;;;;3.50;2.25;;;;;24.32;48.30;100886.63;5075469;27;72693;-47
2022/08/03 03:33:03;;;;;;;;;7.00;4.00;;;;;24.31;48.36;100890.31;5074358;27;46217;-47
2022/08/03 03:35:29;;;;;;;;;5.00;3.00;;;;;24.30;48.66;100885.91;5076340;27;45628;-48
2022/08/03 03:37:54;;;;;;;;;5.25;3.25;;;;;24.28;48.21;100889.72;5078163;27;45541;-49
2022/08/03 03:40:20;;;;;;;;;6.00;6.00;;;;;24.28;48.28;100887.88;5084031;27;64096;-47
2022/08/03 03:42:46;;;;;;;;;4.75;4.25;;;;;24.31;48.21;100890.31;5071276;28;46447;-48
2022/08/03 03:45:12;;;;;;;;;5.25;3.50;;;;;24.31;48.19;100884.97;5068406;28;54362;-48
2022/08/03 03:47:37;;;;;;;;;2.75;2.00;;;;;24.32;48.42;100886.63;5072408;28;45421;-48
2022/08/03 03:50:04;;;;;;;;;5.00;5.00;;;;;24.33;48.55;100885.69;5075331;27;68573;-48
2022/08/03 03:52:30;;;;;;;;;4.00;4.00;;;;;24.31;48.01;100884.97;5085261;27;46473;-46
2022/08/03 03:54:56;;;;;;;;;4.50;4.00;;;;;24.33;48.77;100887.47;5057965;28;45615;-50
2022/08/03 03:57:21;;;;;;;;;4.00;2.75;;;;;24.33;48.15;100883.00;5078587;27;46004;-46
2022/08/03 03:59:47;;;;;;;;;5.75;3.25;;;;;24.36;48.21;100881.88;5069778;27;45422;-51
2022/08/03 04:02:12;;;;;;;;;4.50;1.75;;;;;24.37;48.12;100887.13;5074856;27;46590;-51
2022/08/03 04:13:09;;;;;;;;;2.00;2.00;;;;;24.37;48.12;100886.28;5072611;28;45901;-46
2022/08/03 04:15:37;;;;;;;;;3.75;2.25;;;;;24.35;48.63;100885.56;5045514;28;45809;-46
2022/08/03 04:18:03;;;;;;;;;5.00;4.00;;;;;24.34;48.78;100890.03;5072900;28;45334;-49
2022/08/03 04:20:31;;;;;;;;;4.50;3.75;;;;;24.33;48.45;100890.16;5072225;27;45382;-49
2022/08/03 04:22:59;;;;;;;;;7.00;3.00;;;;;24.32;48.08;100889.31;5071317;27;45413;-50
2022/08/03 04:25:27;;;;;;;;;4.50;3.00;;;;;24.34;48.21;100887.34;5054864;28;45419;-46
2022/08/03 04:27:54;;;;;;;;;2.00;2.00;;;;;24.37;48.02;100889.78;5068170;27;45512;-47
2022/08/03 04:30:21;;;;;;;;;2.00;2.00;;;;;24.38;48.26;100887.94;5070016;27;45799;-49
2022/08/03 04:32:50;;;;;;;;;4.50;4.00;;;;;24.37;48.22;100884.44;5067318;27;46250;-48
2022/08/03 04:35:16;;;;;;;;;3.50;3.00;;;;;24.38;48.15;100885.28;5071386;28;45913;-46
2022/08/03 04:37:44;;;;;;;;;5.75;4.25;;;;;24.39;48.51;100887.00;5072088;27;45379;-47
2022/08/03 04:40:14;;;;;;;;;3.25;3.25;;;;;24.36;48.28;100880.03;5076908;28;45323;-47
2022/08/03 04:42:41;;;;;;;;;4.00;4.00;;;;;24.32;48.41;100883.97;5073279;28;45316;-48
2022/08/03 04:45:07;;;;;;;;;4.00;3.00;;;;;24.32;48.51;100878.63;5058079;28;45849;-49
2022/08/03 04:47:33;;;;;;;;;7.50;4.50;;;;;24.31;48.09;100881.41;5090202;27;45395;-46
2022/08/03 04:50:01;;;;;;;;;4.25;4.00;;;;;24.32;48.35;100885.81;5068929;27;45911;-49
2022/08/03 04:52:26;;;;;;;;;9.25;5.00;;;;;24.32;48.58;100883.13;5072738;27;46067;-47
2022/08/03 04:54:51;;;;;;;;;8.75;7.00;;;;;24.30;48.38;100885.09;5075950;27;60823;-48
2022/08/03 04:57:17;;;;;;;;;7.25;5.50;;;;;24.30;48.43;100887.75;5065885;27;45307;-48
2022/08/03 04:59:43;;;;;;;;;7.25;4.25;;;;;24.28;48.28;100884.38;5076446;28;45509;-50
2022/08/03 05:02:08;;;;;;;;;7.00;6.50;;;;;24.27;48.96;100880.81;5071520;27;46891;-49
2022/08/03 05:04:34;;;;;;;;;5.00;4.75;;;;;24.25;48.59;100891.63;5068724;27;45569;-48
2022/08/03 05:06:59;;;;;;;;;7.25;4.75;;;;;24.24;48.45;100887.28;5068723;27;45483;-47
2022/08/03 05:09:24;;;;;;;;;7.75;5.75;;;;;24.24;48.53;100889.97;5076754;27;47073;-46
2022/08/03 05:11:50;;;;;;;;;0.00;0.00;;;;;24.25;48.74;100894.31;5071807;28;47019;-51
2022/08/03 05:14:15;;;;;;;;;3.75;3.00;;;;;24.28;48.99;100889.72;5071181;27;56198;-49
2022/08/03 05:16:41;;;;;;;;;6.00;3.00;;;;;24.26;48.88;100882.66;5062681;27;45591;-50
2022/08/03 05:19:06;;;;;;;;;6.75;4.75;;;;;24.30;48.35;100887.75;5069834;27;50727;-50
2022/08/03 05:21:31;;;;;;;;;7.75;5.00;;;;;24.31;48.86;100892.97;5071776;28;45272;-51
2022/08/03 05:23:57;;;;;;;;;6.00;3.75;;;;;24.32;48.34;100893.81;5073214;27;64017;-49
2022/08/03 05:26:22;;;;;;;;;7.25;5.75;;;;;24.34;48.46;100898.06;5067282;28;47492;-49
2022/08/03 05:28:47;;;;;;;;;7.00;5.00;;;;;24.36;48.81;100898.78;5072333;27;45429;-39
2022/08/03 05:31:13;;;;;;;;;4.75;4.00;;;;;24.40;48.43;100902.03;5073423;27;75113;-38
2022/08/03 05:33:38;;;;;;;;;9.25;5.75;;;;;24.44;48.73;100900.84;5065580;28;45445;-38
2022/08/03 05:36:04;;;;;;;;;4.25;4.00;;;;;24.49;48.13;100900.44;5075651;27;45394;-40
2022/08/03 05:38:31;;;;;;;;;6.50;4.00;;;;;24.48;47.82;100896.91;5072761;27;45542;-38
2022/08/03 05:40:56;;;;;;;;;3.50;2.50;;;;;24.43;47.97;100902.66;5077169;27;46953;-39
2022/08/03 05:43:22;;;;;;;;;5.50;4.00;;;;;24.37;47.84;100900.47;5068611;27;45320;-38
2022/08/03 05:45:47;;;;;;;;;4.25;3.50;;;;;24.32;48.69;100896.50;5069157;27;45292;-38
2022/08/03 05:48:13;;;;;;;;;4.50;3.75;;;;;24.32;48.84;100905.38;5071441;27;60534;-39
2022/08/03 05:50:38;;;;;;;;;3.50;3.50;;;;;24.38;48.03;100910.22;5052680;28;45542;-39
2022/08/03 05:53:03;;;;;;;;;9.50;7.50;;;;;24.40;47.93;100907.41;5074255;27;45420;-39
2022/08/03 05:55:29;;;;;;;;;3.75;3.75;;;;;24.42;48.54;100900.13;5075283;27;45371;-39
2022/08/03 05:57:54;;;;;;;;;6.00;4.00;;;;;24.44;49.43;100906.19;5086834;27;45570;-39
2022/08/03 06:00:20;;;;;;;;;8.75;4.50;;;;;24.51;49.16;100895.81;5073210;27;46143;-39
2022/08/03 06:02:45;;;;;;;;;6.25;4.00;;;;;24.58;49.30;100900.56;5067389;28;45461;-39
2022/08/03 06:05:11;;;;;;;;;6.25;3.50;;;;;24.66;48.83;100901.75;5074766;27;53360;-39
2022/08/03 06:07:36;;;;;;;;;5.00;2.75;;;;;24.73;49.23;100908.28;5072315;27;45309;-39
2022/08/03 06:10:02;;;;;;;;;9.50;6.00;;;;;24.77;47.99;100907.91;5073720;28;46032;-38
2022/08/03 06:12:29;;;;;;;;;6.75;6.00;;;;;24.81;47.89;100913.84;5078321;27;45331;-39
2022/08/03 06:14:54;;;;;;;;;7.00;5.75;;;;;24.82;47.85;100921.75;5074391;27;45486;-39
2022/08/03 06:17:20;;;;;;;;;8.00;5.75;;;;;24.84;47.81;100913.56;5070145;28;45603;-39
2022/08/03 06:19:45;;;;;;;;;8.75;3.75;;;;;24.86;47.71;100911.63;5071871;28;46178;-39
2022/08/03 06:22:10;;;;;;;;;8.00;5.25;;;;;24.83;48.12;100911.88;5077925;28;45457;-49
2022/08/03 06:24:36;;;;;;;;;5.00;4.00;;;;;24.86;48.00;100914.31;5083393;27;61188;-49
2022/08/03 06:27:01;;;;;;;;;5.00;2.50;;;;;24.90;47.91;100917.56;5067252;27;65882;-50
2022/08/03 06:29:26;;;;;;;;;4.75;3.75;;;;;24.93;47.81;100918.16;5072634;27;55387;-47
2022/08/03 06:31:52;;;;;;;;;6.00;3.50;;;;;24.97;47.73;100906.19;5074118;27;45443;-47
2022/08/03 06:34:17;;;;;;;;;7.75;5.25;;;;;25.01;48.00;100909.47;5071421;27;45436;-52
2022/08/03 06:36:42;;;;;;;;;4.00;4.00;;;;;25.07;47.68;100916.13;5076144;27;45547;-52
2022/08/03 06:39:08;;;;;;;;;6.25;4.00;;;;;25.12;47.60;100919.25;5066027;27;47117;-48
2022/08/03 06:41:33;;;;;;;;;3.00;3.00;;;;;25.13;47.68;100918.28;5077338;27;45445;-50
2022/08/03 06:43:59;;;;;;;;;5.75;3.00;;;;;25.17;47.76;100911.69;5079691;28;45370;-54
2022/08/03 06:46:24;;;;;;;;;4.00;2.75;;;;;25.22;47.28;100917.50;5077846;27;71112;-50
2022/08/03 06:48:49;;;;;;;;;6.75;3.00;;;;;25.25;47.55;100911.91;5079663;27;64009;-47
2022/08/03 06:51:15;;;;;;;;;7.50;6.00;;;;;25.29;47.50;100913.31;5070641;28;45280;-49
2022/08/03 06:53:40;;;;;;;;;4.00;3.00;;;;;25.31;47.30;100911.34;5077149;28;69489;-49
2022/08/03 06:56:06;;;;;;;;;20.25;17.00;;;;;25.37;47.27;100921.56;5069242;27;63918;-54
2022/08/03 06:58:32;;;;;;;;;13.00;11.00;;;;;25.42;47.00;100917.63;5063870;27;45350;-53
2022/08/03 07:00:58;;;;;;;;;11.50;9.50;;;;;25.46;46.87;100919.91;5064296;27;45305;-48
2022/08/03 07:03:23;;;;;;;;;12.25;8.75;;;;;25.51;47.24;100924.84;5067305;28;45292;-52
2022/08/03 07:05:50;;;;;;;;;8.50;6.50;;;;;25.54;47.11;100924.59;5076503;28;45543;-52
2022/08/03 07:08:15;;;;;;;;;12.25;8.50;;;;;25.59;47.15;100922.38;5080199;27;46215;-51
2022/08/03 07:10:41;;;;;;;;;10.00;6.50;;;;;25.62;46.90;100921.22;5070147;27;45324;-50
2022/08/03 07:13:06;;;;;;;;;6.00;4.75;;;;;25.65;46.75;100921.81;5074919;28;45295;-50
2022/08/03 07:15:32;;;;;;;;;8.50;5.75;;;;;25.71;46.99;100918.59;5067147;28;56419;-49
2022/08/03 07:17:57;;;;;;;;;5.00;3.50;;;;;25.75;46.74;100925.38;5061190;28;47088;-49
2022/08/03 07:20:23;;;;;;;;;4.00;2.50;;;;;25.80;46.49;100918.75;5073203;28;46003;-51
2022/08/03 07:22:48;;;;;;;;;5.50;5.00;;;;;25.86;46.33;100926.28;5077780;28;45414;-51
2022/08/03 07:25:14;;;;;;;;;6.00;4.00;;;;;25.88;46.24;100917.09;5073083;28;67654;-46
2022/08/03 07:27:46;;;;;;;;;3.75;3.00;;;;;25.95;45.67;100920.13;5077077;28;46004;-49
2022/08/03 07:30:13;;;;;;;;;7.75;3.50;;;;;26.02;46.12;100923.09;5069598;27;45392;-48
2022/08/03 07:32:39;;;;;;;;;2.25;2.25;;;;;26.06;45.25;100917.31;5072888;28;45316;-47
2022/08/03 07:35:05;;;;;;;;;6.75;4.75;;;;;26.11;45.77;100914.22;5081422;27;45337;-47
2022/08/03 07:37:32;;;;;;;;;4.75;3.25;;;;;26.17;45.30;100915.50;5073263;28;47039;-48
2022/08/03 07:40:01;;;;;;;;;4.50;2.25;;;;;26.20;45.61;100905.34;5078432;27;45229;-50
2022/08/03 07:42:27;;;;;;;;;4.00;2.75;;;;;26.24;45.32;100908.59;5074218;28;45308;-47
2022/08/03 07:44:52;;;;;;;;;3.50;2.25;;;;;26.29;44.50;100907.22;5073185;27;45445;-49
2022/08/03 07:47:22;;;;;;;;;4.00;2.00;;;;;26.34;44.76;100912.97;5074445;27;62231;-49
2022/08/03 07:49:48;;;;;;;;;7.00;2.75;;;;;26.39;43.41;100917.09;5090497;27;45261;-48
2022/08/03 07:54:57;;;;;;;;;7.75;4.00;;;;;26.48;43.90;100913.56;5073571;28;45300;-52
2022/08/03 07:57:22;;;;;;;;;5.75;3.00;;;;;26.52;43.48;100918.53;5074326;27;73713;-47
2022/08/03 07:59:48;;;;;;;;;7.25;4.00;;;;;26.59;43.90;100916.09;5074639;27;45418;-51
2022/08/03 08:02:13;;;;;;;;;5.00;3.00;;;;;26.66;43.61;100913.72;5081994;27;45294;-52
2022/08/03 08:04:39;;;;;;;;;6.50;4.50;;;;;26.74;43.70;100923.75;5072586;28;45202;-47
2022/08/03 08:07:04;;;;;;;;;7.75;4.00;;;;;26.78;43.25;100912.59;5073424;27;46051;-50
2022/08/03 08:09:29;;;;;;;;;11.75;8.75;;;;;26.85;43.41;100919.09;5075395;27;45231;-49
2022/08/03 08:11:55;;;;;;;;;25.25;22.50;;;;;26.92;42.93;100924.75;5085285;27;55657;-51
2022/08/03 08:14:20;;;;;;;;;10.00;8.00;;;;;26.99;43.34;100916.97;5069908;27;45310;-50
2022/08/03 08:16:46;;;;;;;;;12.25;9.75;;;;;27.05;42.80;100921.75;5077233;28;54047;-47
2022/08/03 08:19:13;;;;;;;;;11.25;9.25;;;;;27.10;42.38;100916.78;5072775;27;45875;-46
2022/08/03 08:21:38;;;;;;;;;9.25;6.75;;;;;27.15;42.52;100914.50;5079279;27;45328;-53
2022/08/03 08:24:04;;;;;;;;;4.75;3.75;;;;;27.24;42.87;100912.78;5072355;27;45431;-52
2022/08/03 08:26:30;;;;;;;;;2.75;1.00;;;;;27.28;42.64;100911.53;5077926;27;46373;-51
2022/08/03 08:28:55;;;;;;;;;5.25;4.00;;;;;27.34;42.43;100913.66;5076137;27;65778;-48
2022/08/03 08:31:20;;;;;;;;;5.00;4.00;;;;;27.35;42.08;100906.44;5077942;27;45479;-48
2022/08/03 08:33:46;;;;;;;;;6.00;5.00;;;;;27.45;41.63;100913.47;5072227;27;55605;-52
2022/08/03 08:36:11;;;;;;;;;5.00;4.00;;;;;27.52;42.08;100910.19;5073042;27;74586;-51
2022/08/03 08:38:37;;;;;;;;;3.75;3.00;;;;;27.56;41.30;100906.22;5072685;28;71524;-50
2022/08/03 08:41:03;;;;;;;;;5.75;4.00;;;;;27.62;41.38;100894.84;5071931;27;45425;-50
2022/08/03 08:43:28;;;;;;;;;3.75;3.75;;;;;27.70;41.71;100904.88;5068013;28;45347;-47
2022/08/03 08:45:54;;;;;;;;;5.25;5.25;;;;;27.75;41.50;100895.38;5072747;27;68847;-50
2022/08/03 08:48:23;;;;;;;;;12.25;8.50;;;;;27.81;41.75;100897.44;5068071;28;66734;-50
2022/08/03 08:50:53;;;;;;;;;4.25;2.75;;;;;27.88;41.78;100897.69;5075317;27;45481;-52
2022/08/03 08:53:18;;;;;;;;;9.25;5.00;;;;;27.92;41.53;100901.78;5079264;27;45275;-51
2022/08/03 08:55:46;;;;;;;;;7.00;4.75;;;;;27.99;41.25;100893.97;5071884;27;75737;-52
2022/08/03 08:58:11;;;;;;;;;5.00;4.75;;;;;28.06;41.13;100899.59;5073087;28;45633;-52
2022/08/03 09:00:37;;;;;;;;;4.50;3.75;;;;;28.11;40.95;100895.44;5080023;27;45437;-51
2022/08/03 09:03:02;;;;;;;;;5.25;3.00;;;;;28.17;40.49;100897.56;5080085;27;69316;-53
2022/08/03 09:05:31;;;;;;;;;5.25;3.50;;;;;28.21;40.13;100896.25;5079321;28;56640;-52
2022/08/03 09:07:57;;;;;;;;;4.75;3.25;;;;;28.29;40.31;100892.78;5081066;27;45548;-51
2022/08/03 09:10:23;;;;;;;;;6.50;4.00;;;;;28.36;39.99;100895.69;5081141;27;45527;-51
2022/08/03 09:12:50;;;;;;;;;5.00;4.75;;;;;28.44;40.11;100897.63;5077521;27;55457;-51
2022/08/03 09:15:19;;;;;;;;;7.00;5.00;;;;;28.50;39.64;100892.47;5077090;27;46310;-50
2022/08/03 09:17:44;;;;;;;;;4.50;3.50;;;;;28.57;39.76;100890.88;5083970;27;45734;-47
2022/08/03 09:20:10;;;;;;;;;5.50;3.25;;;;;28.62;40.02;100886.88;5074203;27;45236;-48
2022/08/03 09:22:53;;;;;;;;;6.00;6.00;;;;;28.72;39.69;100884.94;5072991;28;45405;-47
2022/08/03 09:25:19;;;;;;;;;12.50;9.00;;;;;28.81;39.27;100881.31;5071494;27;47059;-52
2022/08/03 09:27:45;;;;;;;;;19.75;17.25;;;;;28.93;39.67;100884.56;5078535;28;45520;-53
2022/08/03 09:30:15;;;;;;;;;11.25;7.75;;;;;29.07;39.00;100885.84;5076616;27;45244;-47
2022/08/03 09:32:40;;;;;;;;;14.75;11.50;;;;;29.20;39.42;100889.00;5076123;28;45631;-48
2022/08/03 09:35:07;;;;;;;;;12.50;8.25;;;;;29.37;39.12;100891.78;5079690;27;45795;-47
2022/08/03 09:37:32;;;;;;;;;8.00;4.75;;;;;29.56;38.79;100890.72;5075473;28;45436;-47
2022/08/03 09:39:58;;;;;;;;;6.50;5.50;;;;;29.77;38.55;100880.38;5080692;27;45497;-47
2022/08/03 09:42:23;;;;;;;;;8.50;7.25;;;;;30.00;38.42;100886.00;5079655;27;66424;-51
2022/08/03 09:44:50;;;;;;;;;5.00;3.50;;;;;30.27;37.60;100881.31;5080227;27;45471;-53
2022/08/03 09:47:30;;;;;;;;;3.00;3.00;;;;;30.58;37.24;100880.69;5071606;28;45642;-53
2022/08/03 09:50:00;;;;;;;;;7.50;4.50;;;;;30.92;36.49;100874.25;5076038;27;45372;-50
2022/08/03 09:52:46;;;;;;;;;7.75;5.00;;;;;31.33;36.71;100869.59;5074577;28;45550;-51
2022/08/03 09:55:13;;;;;;;;;6.00;4.00;;;;;31.82;35.12;100873.13;5077251;28;47152;-52
2022/08/03 09:57:45;;;;;;;;;33.00;28.25;;;;;32.63;35.05;100866.34;5078122;27;45186;-52
2022/08/03 10:00:12;;;;;;;;;19.00;14.75;;;;;33.93;33.19;100865.06;5078173;27;45368;-48
2022/08/03 10:02:40;;;;;;;;;6.50;4.75;;;;;35.30;31.34;100858.50;5094574;27;45505;-52
2022/08/03 10:05:07;;;;;;;;;10.00;6.25;;;;;36.62;29.25;100859.06;5078264;27;45473;-49
2022/08/03 10:07:49;;;;;;;;;11.75;9.25;;;;;37.96;28.42;100858.69;5072441;27;46100;-55
2022/08/03 10:10:15;;;;;;;;;4.75;4.25;;;;;39.16;26.41;100856.88;5081779;27;45303;-49
2022/08/03 10:12:42;;;;;;;;;6.50;4.00;;;;;40.26;25.91;100855.00;5077067;27;45372;-54
2022/08/03 10:15:09;;;;;;;;;5.75;3.75;;;;;41.27;25.13;100852.97;5079746;27;46257;-54
2022/08/03 10:17:35;;;;;;;;;2.50;2.50;;;;;42.19;24.40;100847.59;5075042;27;45900;-53
2022/08/03 10:20:02;;;;;;;;;12.50;10.75;;;;;43.04;22.93;100851.09;5080311;27;45208;-53
2022/08/03 10:22:32;;;;;;;;;6.50;5.75;;;;;43.76;21.37;100847.31;5075501;28;45256;-51
2022/08/03 10:25:09;;;;;;;;;6.00;6.00;;;;;44.40;22.44;100845.66;5073730;27;46327;-52
2022/08/03 10:27:39;;;;;;;;;8.25;5.75;;;;;45.00;21.47;100843.59;5079122;28;45821;-50
2022/08/03 10:30:07;;;;;;;;;11.50;10.75;;;;;45.58;20.12;100842.66;5071840;27;45232;-51
2022/08/03 10:33:18;;;;;;;;;5.25;4.50;;;;;46.11;19.52;100835.00;5073061;28;45397;-53
2022/08/03 10:35:47;;;;;;;;;2.00;1.00;;;;;46.46;19.39;100846.34;5018230;28;45453;-50
2022/08/03 10:38:20;;;;;;;;;3.00;3.00;;;;;46.86;19.41;100845.47;5033259;28;45479;-53
2022/08/03 10:40:49;;;;;;;;;5.25;5.25;;;;;47.23;17.99;100835.03;5063376;27;45392;-52
2022/08/03 10:43:21;;;;;;;;;6.25;3.50;;;;;47.57;17.81;100829.59;5073316;27;45465;-52
2022/08/03 10:45:47;;;;;;;;;4.25;3.00;;;;;47.86;17.99;100829.66;5076632;27;47018;-54
2022/08/03 10:48:12;;;;;;;;;3.25;3.00;;;;;48.12;16.98;100820.34;5079250;27;45448;-55
2022/08/03 10:50:39;;;;;;;;;3.25;2.50;;;;;48.29;17.70;100829.03;5079767;27;68623;-54
2022/08/03 10:53:05;;;;;;;;;4.00;2.00;;;;;48.36;16.33;100824.00;5062593;28;45479;-53
2022/08/03 10:58:35;;;;;;;;;3.25;2.00;;;;;48.60;13.96;100815.66;5076354;28;45416;-53
2022/08/03 11:01:02;;;;;;;;;2.50;1.75;;;;;48.57;14.27;100815.44;5074521;27;45311;-54
2022/08/03 11:03:27;;;;;;;;;1.75;1.75;;;;;48.42;15.73;100808.13;5076153;28;45520;-57
2022/08/03 11:06:13;;;;;;;;;1.25;1.25;;;;;48.37;15.35;100809.00;5076137;27;64758;-54
2022/08/03 11:08:39;;;;;;;;;3.00;3.00;;;;;48.41;16.06;100807.28;5078244;27;45221;-52
2022/08/03 11:11:16;;;;;;;;;2.25;2.25;;;;;48.38;15.65;100807.88;5074278;27;45327;-54
2022/08/03 11:14:01;;;;;;;;;4.25;4.25;;;;;48.33;16.29;100802.34;5067887;28;45322;-54
2022/08/03 11:16:28;;;;;;;;;6.00;6.00;;;;;48.31;16.15;100787.94;5065999;28;47134;-51
2022/08/03 11:19:00;;;;;;;;;6.00;5.00;;;;;48.31;14.13;100796.28;5085514;27;45928;-53
2022/08/03 11:21:52;;;;;;;;;4.25;3.50;;;;;48.26;15.36;100802.69;5077889;28;45366;-54
2022/08/03 11:24:50;;;;;;;;;4.00;3.00;;;;;48.32;15.67;100789.56;5077176;27;45565;-53
2022/08/03 11:27:29;;;;;;;;;4.00;4.00;;;;;48.40;16.09;100791.75;5064933;28;45893;-54
2022/08/03 11:29:59;;;;;;;;;4.00;4.00;;;;;48.42;15.60;100783.94;5075221;27;45441;-54
2022/08/03 11:32:37;;;;;;;;;5.25;5.00;;;;;48.51;14.56;100780.53;5078727;27;45461;-54
2022/08/03 11:35:09;;;;;;;;;3.00;3.00;;;;;48.57;13.75;100785.72;5077168;27;45264;-52
2022/08/03 11:37:35;;;;;;;;;3.50;1.50;;;;;48.51;13.49;100774.97;5078431;28;45987;-54
2022/08/03 11:40:01;;;;;;;;;3.00;2.00;;;;;48.47;14.29;100769.19;5072813;28;45383;-52